sensor_id;sensor_type;location;lat;lon;timestamp;P1;durP1;ratioP1;P2;durP2;ratioP2
71095;SDS011;58753;49.440;11.126;2023-04-25T00:01:27;6.23;;;2.80;;
71095;SDS011;58753;49.440;11.126;2023-04-25T00:03:53;4.80;;;1.90;;
71095;SDS011;58753;49.440;11.126;2023-04-25T00:06:18;4.80;;;2.13;;
71095;SDS011;58753;49.440;11.126;2023-04-25T00:08:43;6.33;;;2.77;;
71095;SDS011;58753;49.440;11.126;2023-04-25T00:11:09;5.13;;;2.30;;
71095;SDS011;58753;49.440;11.126;2023-04-25T00:13:34;6.65;;;2.40;;
71095;SDS011;58753;49.440;11.126;2023-04-25T00:16:00;5.47;;;2.53;;
71095;SDS011;58753;49.440;11.126;2023-04-25T00:18:25;5.03;;;2.70;;
71095;SDS011;58753;49.440;11.126;2023-04-25T00:20:53;5.32;;;2.30;;
71095;SDS011;58753;49.440;11.126;2023-04-25T00:23:19;6.43;;;2.70;;
71095;SDS011;58753;49.440;11.126;2023-04-25T00:25:44;7.47;;;3.00;;
71095;SDS011;58753;49.440;11.126;2023-04-25T00:28:11;5.07;;;2.35;;
71095;SDS011;58753;49.440;11.126;2023-04-25T00:30:37;4.60;;;2.25;;
71095;SDS011;58753;49.440;11.126;2023-04-25T00:33:03;5.82;;;2.65;;
71095;SDS011;58753;49.440;11.126;2023-04-25T00:35:28;5.20;;;2.73;;
71095;SDS011;58753;49.440;11.126;2023-04-25T00:37:54;6.43;;;2.33;;
71095;SDS011;58753;49.440;11.126;2023-04-25T00:40:20;6.25;;;2.80;;
71095;SDS011;58753;49.440;11.126;2023-04-25T00:42:45;5.25;;;2.80;;
71095;SDS011;58753;49.440;11.126;2023-04-25T00:45:13;8.23;;;2.97;;
71095;SDS011;58753;49.440;11.126;2023-04-25T00:47:42;8.23;;;2.65;;
71095;SDS011;58753;49.440;11.126;2023-04-25T00:50:07;3.83;;;2.00;;
71095;SDS011;58753;49.440;11.126;2023-04-25T00:52:33;3.90;;;2.40;;
71095;SDS011;58753;49.440;11.126;2023-04-25T00:54:59;10.02;;;2.53;;
71095;SDS011;58753;49.440;11.126;2023-04-25T00:57:25;5.68;;;3.17;;
71095;SDS011;58753;49.440;11.126;2023-04-25T00:59:51;6.30;;;2.73;;
71095;SDS011;58753;49.440;11.126;2023-04-25T01:02:17;6.53;;;3.10;;
71095;SDS011;58753;49.440;11.126;2023-04-25T01:04:44;5.10;;;2.50;;
71095;SDS011;58753;49.440;11.126;2023-04-25T01:07:09;6.72;;;3.05;;
71095;SDS011;58753;49.440;11.126;2023-04-25T01:09:35;5.07;;;2.43;;
71095;SDS011;58753;49.440;11.126;2023-04-25T01:12:00;6.60;;;2.37;;
71095;SDS011;58753;49.440;11.126;2023-04-25T01:14:26;7.40;;;2.75;;
71095;SDS011;58753;49.440;11.126;2023-04-25T01:16:52;6.80;;;3.33;;
71095;SDS011;58753;49.440;11.126;2023-04-25T01:19:18;7.37;;;2.30;;
71095;SDS011;58753;49.440;11.126;2023-04-25T01:21:44;5.53;;;2.80;;
71095;SDS011;58753;49.440;11.126;2023-04-25T01:24:10;7.38;;;2.50;;
71095;SDS011;58753;49.440;11.126;2023-04-25T01:26:36;7.47;;;2.50;;
71095;SDS011;58753;49.440;11.126;2023-04-25T01:29:01;4.73;;;2.30;;
71095;SDS011;58753;49.440;11.126;2023-04-25T01:31:29;4.95;;;2.45;;
71095;SDS011;58753;49.440;11.126;2023-04-25T01:33:55;5.28;;;2.58;;
71095;SDS011;58753;49.440;11.126;2023-04-25T01:36:21;6.18;;;2.15;;
71095;SDS011;58753;49.440;11.126;2023-04-25T01:38:47;6.63;;;2.50;;
71095;SDS011;58753;49.440;11.126;2023-04-25T01:41:13;5.33;;;2.57;;
71095;SDS011;58753;49.440;11.126;2023-04-25T01:43:39;4.90;;;2.45;;
71095;SDS011;58753;49.440;11.126;2023-04-25T01:46:05;5.22;;;2.60;;
71095;SDS011;58753;49.440;11.126;2023-04-25T01:48:31;4.00;;;2.22;;
71095;SDS011;58753;49.440;11.126;2023-04-25T01:50:56;4.40;;;2.07;;
71095;SDS011;58753;49.440;11.126;2023-04-25T01:53:22;5.82;;;2.10;;
71095;SDS011;58753;49.440;11.126;2023-04-25T01:55:48;4.30;;;2.20;;
71095;SDS011;58753;49.440;11.126;2023-04-25T01:58:14;5.50;;;2.43;;
71095;SDS011;58753;49.440;11.126;2023-04-25T02:00:39;4.67;;;2.53;;
71095;SDS011;58753;49.440;11.126;2023-04-25T02:03:06;3.75;;;1.98;;
71095;SDS011;58753;49.440;11.126;2023-04-25T02:05:35;6.68;;;1.60;;
71095;SDS011;58753;49.440;11.126;2023-04-25T02:08:02;4.65;;;2.60;;
71095;SDS011;58753;49.440;11.126;2023-04-25T02:10:28;5.80;;;2.40;;
71095;SDS011;58753;49.440;11.126;2023-04-25T02:12:53;8.20;;;2.05;;
71095;SDS011;58753;49.440;11.126;2023-04-25T02:15:19;4.93;;;2.27;;
71095;SDS011;58753;49.440;11.126;2023-04-25T02:17:44;5.03;;;2.30;;
71095;SDS011;58753;49.440;11.126;2023-04-25T02:20:10;6.23;;;2.57;;
71095;SDS011;58753;49.440;11.126;2023-04-25T02:22:36;4.07;;;2.47;;
71095;SDS011;58753;49.440;11.126;2023-04-25T02:25:01;6.53;;;2.65;;
71095;SDS011;58753;49.440;11.126;2023-04-25T02:27:29;5.23;;;2.30;;
71095;SDS011;58753;49.440;11.126;2023-04-25T02:29:55;4.63;;;2.40;;
71095;SDS011;58753;49.440;11.126;2023-04-25T02:32:21;6.87;;;3.60;;
71095;SDS011;58753;49.440;11.126;2023-04-25T02:34:46;5.65;;;2.50;;
71095;SDS011;58753;49.440;11.126;2023-04-25T02:37:13;6.93;;;2.90;;
71095;SDS011;58753;49.440;11.126;2023-04-25T02:39:38;6.18;;;2.78;;
71095;SDS011;58753;49.440;11.126;2023-04-25T02:42:03;5.53;;;3.00;;
71095;SDS011;58753;49.440;11.126;2023-04-25T02:44:29;5.50;;;3.00;;
71095;SDS011;58753;49.440;11.126;2023-04-25T02:46:54;8.55;;;3.22;;
71095;SDS011;58753;49.440;11.126;2023-04-25T02:49:20;7.40;;;2.93;;
71095;SDS011;58753;49.440;11.126;2023-04-25T02:51:45;6.57;;;2.90;;
71095;SDS011;58753;49.440;11.126;2023-04-25T02:54:11;8.17;;;3.10;;
71095;SDS011;58753;49.440;11.126;2023-04-25T02:56:36;6.20;;;2.90;;
71095;SDS011;58753;49.440;11.126;2023-04-25T02:59:01;8.27;;;3.03;;
71095;SDS011;58753;49.440;11.126;2023-04-25T03:01:27;6.97;;;3.37;;
71095;SDS011;58753;49.440;11.126;2023-04-25T03:03:52;9.00;;;3.50;;
71095;SDS011;58753;49.440;11.126;2023-04-25T03:06:18;9.80;;;3.57;;
71095;SDS011;58753;49.440;11.126;2023-04-25T03:08:43;7.72;;;4.00;;
71095;SDS011;58753;49.440;11.126;2023-04-25T03:11:08;7.77;;;3.67;;
71095;SDS011;58753;49.440;11.126;2023-04-25T03:13:34;7.83;;;3.60;;
71095;SDS011;58753;49.440;11.126;2023-04-25T03:16:00;7.03;;;3.40;;
71095;SDS011;58753;49.440;11.126;2023-04-25T03:18:25;8.30;;;3.72;;
71095;SDS011;58753;49.440;11.126;2023-04-25T03:20:51;7.13;;;3.50;;
71095;SDS011;58753;49.440;11.126;2023-04-25T03:23:16;7.18;;;3.35;;
71095;SDS011;58753;49.440;11.126;2023-04-25T03:25:42;7.53;;;4.20;;
71095;SDS011;58753;49.440;11.126;2023-04-25T03:28:07;8.90;;;3.63;;
71095;SDS011;58753;49.440;11.126;2023-04-25T03:30:33;7.97;;;3.60;;
71095;SDS011;58753;49.440;11.126;2023-04-25T03:32:58;8.00;;;3.83;;
71095;SDS011;58753;49.440;11.126;2023-04-25T03:35:24;7.70;;;3.80;;
71095;SDS011;58753;49.440;11.126;2023-04-25T03:37:49;7.50;;;3.97;;
71095;SDS011;58753;49.440;11.126;2023-04-25T03:40:15;7.60;;;4.07;;
71095;SDS011;58753;49.440;11.126;2023-04-25T03:42:40;8.33;;;3.57;;
71095;SDS011;58753;49.440;11.126;2023-04-25T03:45:06;7.43;;;4.13;;
71095;SDS011;58753;49.440;11.126;2023-04-25T03:47:32;7.73;;;3.83;;
71095;SDS011;58753;49.440;11.126;2023-04-25T03:49:57;9.55;;;4.15;;
71095;SDS011;58753;49.440;11.126;2023-04-25T03:52:23;6.20;;;3.93;;
71095;SDS011;58753;49.440;11.126;2023-04-25T03:54:48;7.83;;;4.40;;
71095;SDS011;58753;49.440;11.126;2023-04-25T03:57:13;7.90;;;4.13;;
71095;SDS011;58753;49.440;11.126;2023-04-25T03:59:39;7.97;;;4.40;;
71095;SDS011;58753;49.440;11.126;2023-04-25T04:02:04;7.07;;;4.13;;
71095;SDS011;58753;49.440;11.126;2023-04-25T04:04:30;8.13;;;3.53;;
71095;SDS011;58753;49.440;11.126;2023-04-25T04:06:55;9.23;;;4.20;;
71095;SDS011;58753;49.440;11.126;2023-04-25T04:09:21;8.48;;;3.38;;
71095;SDS011;58753;49.440;11.126;2023-04-25T04:11:46;8.90;;;3.67;;
71095;SDS011;58753;49.440;11.126;2023-04-25T04:14:12;6.23;;;3.20;;
71095;SDS011;58753;49.440;11.126;2023-04-25T04:16:37;7.40;;;3.87;;
71095;SDS011;58753;49.440;11.126;2023-04-25T04:19:02;7.13;;;3.60;;
71095;SDS011;58753;49.440;11.126;2023-04-25T04:21:28;8.90;;;3.57;;
71095;SDS011;58753;49.440;11.126;2023-04-25T04:23:53;6.70;;;3.27;;
71095;SDS011;58753;49.440;11.126;2023-04-25T04:26:19;7.40;;;4.05;;
71095;SDS011;58753;49.440;11.126;2023-04-25T04:28:48;5.63;;;3.53;;
71095;SDS011;58753;49.440;11.126;2023-04-25T04:31:15;8.17;;;4.17;;
71095;SDS011;58753;49.440;11.126;2023-04-25T04:33:40;6.35;;;3.60;;
71095;SDS011;58753;49.440;11.126;2023-04-25T04:36:06;6.43;;;4.03;;
71095;SDS011;58753;49.440;11.126;2023-04-25T04:38:32;7.82;;;3.67;;
71095;SDS011;58753;49.440;11.126;2023-04-25T04:40:58;12.53;;;5.33;;
71095;SDS011;58753;49.440;11.126;2023-04-25T04:43:23;5.87;;;3.27;;
71095;SDS011;58753;49.440;11.126;2023-04-25T04:45:49;7.37;;;3.63;;
71095;SDS011;58753;49.440;11.126;2023-04-25T04:48:15;6.60;;;3.30;;
71095;SDS011;58753;49.440;11.126;2023-04-25T04:50:42;7.43;;;3.90;;
71095;SDS011;58753;49.440;11.126;2023-04-25T04:53:09;7.50;;;3.80;;
71095;SDS011;58753;49.440;11.126;2023-04-25T04:55:35;6.60;;;3.65;;
71095;SDS011;58753;49.440;11.126;2023-04-25T04:58:01;6.77;;;3.63;;
71095;SDS011;58753;49.440;11.126;2023-04-25T05:00:26;9.20;;;3.67;;
71095;SDS011;58753;49.440;11.126;2023-04-25T05:02:52;7.78;;;4.15;;
71095;SDS011;58753;49.440;11.126;2023-04-25T05:05:17;10.10;;;4.43;;
71095;SDS011;58753;49.440;11.126;2023-04-25T05:07:43;9.10;;;4.90;;
71095;SDS011;58753;49.440;11.126;2023-04-25T05:10:08;9.60;;;4.77;;
71095;SDS011;58753;49.440;11.126;2023-04-25T05:12:34;8.73;;;4.17;;
71095;SDS011;58753;49.440;11.126;2023-04-25T05:14:59;10.33;;;4.03;;
71095;SDS011;58753;49.440;11.126;2023-04-25T05:17:25;7.85;;;4.20;;
71095;SDS011;58753;49.440;11.126;2023-04-25T05:19:50;9.50;;;4.30;;
71095;SDS011;58753;49.440;11.126;2023-04-25T05:22:16;8.55;;;4.60;;
71095;SDS011;58753;49.440;11.126;2023-04-25T05:24:41;9.03;;;4.77;;
71095;SDS011;58753;49.440;11.126;2023-04-25T05:27:06;8.33;;;4.87;;
71095;SDS011;58753;49.440;11.126;2023-04-25T05:29:32;8.00;;;4.07;;
71095;SDS011;58753;49.440;11.126;2023-04-25T05:31:57;7.93;;;4.13;;
71095;SDS011;58753;49.440;11.126;2023-04-25T05:34:22;11.60;;;4.40;;
71095;SDS011;58753;49.440;11.126;2023-04-25T05:36:48;5.50;;;2.77;;
71095;SDS011;58753;49.440;11.126;2023-04-25T05:39:15;6.43;;;3.73;;
71095;SDS011;58753;49.440;11.126;2023-04-25T05:41:41;8.77;;;4.53;;
71095;SDS011;58753;49.440;11.126;2023-04-25T05:44:07;11.10;;;5.10;;
71095;SDS011;58753;49.440;11.126;2023-04-25T05:46:32;8.00;;;3.80;;
71095;SDS011;58753;49.440;11.126;2023-04-25T05:48:57;9.98;;;4.70;;
71095;SDS011;58753;49.440;11.126;2023-04-25T05:51:23;8.93;;;4.23;;
71095;SDS011;58753;49.440;11.126;2023-04-25T05:53:48;7.50;;;4.47;;
71095;SDS011;58753;49.440;11.126;2023-04-25T05:56:14;7.93;;;4.03;;
71095;SDS011;58753;49.440;11.126;2023-04-25T05:58:39;8.68;;;3.95;;
71095;SDS011;58753;49.440;11.126;2023-04-25T06:01:05;8.07;;;4.40;;
71095;SDS011;58753;49.440;11.126;2023-04-25T06:03:30;6.47;;;3.80;;
71095;SDS011;58753;49.440;11.126;2023-04-25T06:05:55;7.17;;;4.27;;
71095;SDS011;58753;49.440;11.126;2023-04-25T06:08:21;6.70;;;3.72;;
71095;SDS011;58753;49.440;11.126;2023-04-25T06:10:46;6.47;;;2.87;;
71095;SDS011;58753;49.440;11.126;2023-04-25T06:13:12;9.33;;;5.13;;
71095;SDS011;58753;49.440;11.126;2023-04-25T06:15:37;8.47;;;3.73;;
71095;SDS011;58753;49.440;11.126;2023-04-25T06:18:02;10.00;;;4.70;;
71095;SDS011;58753;49.440;11.126;2023-04-25T06:20:28;8.33;;;4.20;;
71095;SDS011;58753;49.440;11.126;2023-04-25T06:22:53;8.50;;;2.87;;
71095;SDS011;58753;49.440;11.126;2023-04-25T06:25:19;8.10;;;3.70;;
71095;SDS011;58753;49.440;11.126;2023-04-25T06:27:45;8.25;;;4.88;;
71095;SDS011;58753;49.440;11.126;2023-04-25T06:30:10;8.32;;;4.25;;
71095;SDS011;58753;49.440;11.126;2023-04-25T06:32:37;8.37;;;4.40;;
71095;SDS011;58753;49.440;11.126;2023-04-25T06:35:03;10.30;;;5.00;;
71095;SDS011;58753;49.440;11.126;2023-04-25T06:37:28;8.80;;;4.90;;
71095;SDS011;58753;49.440;11.126;2023-04-25T06:39:54;8.03;;;3.77;;
71095;SDS011;58753;49.440;11.126;2023-04-25T06:42:20;9.30;;;4.87;;
71095;SDS011;58753;49.440;11.126;2023-04-25T06:44:45;9.47;;;4.67;;
71095;SDS011;58753;49.440;11.126;2023-04-25T06:47:10;9.20;;;5.27;;
71095;SDS011;58753;49.440;11.126;2023-04-25T06:49:36;10.50;;;5.00;;
71095;SDS011;58753;49.440;11.126;2023-04-25T06:52:02;10.40;;;4.75;;
71095;SDS011;58753;49.440;11.126;2023-04-25T06:54:27;10.70;;;5.68;;
71095;SDS011;58753;49.440;11.126;2023-04-25T06:56:54;9.37;;;4.97;;
71095;SDS011;58753;49.440;11.126;2023-04-25T06:59:20;9.70;;;5.35;;
71095;SDS011;58753;49.440;11.126;2023-04-25T07:01:46;11.05;;;5.43;;
71095;SDS011;58753;49.440;11.126;2023-04-25T07:04:11;10.30;;;5.60;;
71095;SDS011;58753;49.440;11.126;2023-04-25T07:06:37;10.67;;;5.43;;
71095;SDS011;58753;49.440;11.126;2023-04-25T07:09:07;11.70;;;4.75;;
71095;SDS011;58753;49.440;11.126;2023-04-25T07:11:35;10.35;;;5.65;;
71095;SDS011;58753;49.440;11.126;2023-04-25T07:14:01;10.73;;;5.77;;
71095;SDS011;58753;49.440;11.126;2023-04-25T07:16:27;11.55;;;6.00;;
71095;SDS011;58753;49.440;11.126;2023-04-25T07:18:52;12.33;;;6.47;;
71095;SDS011;58753;49.440;11.126;2023-04-25T07:21:18;12.07;;;6.40;;
71095;SDS011;58753;49.440;11.126;2023-04-25T07:23:43;11.45;;;5.72;;
71095;SDS011;58753;49.440;11.126;2023-04-25T07:26:08;11.13;;;5.20;;
71095;SDS011;58753;49.440;11.126;2023-04-25T07:28:34;7.83;;;4.30;;
71095;SDS011;58753;49.440;11.126;2023-04-25T07:30:59;7.57;;;4.43;;
71095;SDS011;58753;49.440;11.126;2023-04-25T07:33:25;9.75;;;5.07;;
71095;SDS011;58753;49.440;11.126;2023-04-25T07:35:50;6.97;;;3.53;;
71095;SDS011;58753;49.440;11.126;2023-04-25T07:38:16;6.43;;;2.27;;
71095;SDS011;58753;49.440;11.126;2023-04-25T07:40:41;5.33;;;1.70;;
71095;SDS011;58753;49.440;11.126;2023-04-25T07:43:06;6.10;;;1.67;;
71095;SDS011;58753;49.440;11.126;2023-04-25T07:45:32;4.43;;;2.57;;
71095;SDS011;58753;49.440;11.126;2023-04-25T07:47:57;4.83;;;1.73;;
71095;SDS011;58753;49.440;11.126;2023-04-25T07:50:23;4.82;;;2.33;;
71095;SDS011;58753;49.440;11.126;2023-04-25T07:52:48;5.83;;;2.53;;
71095;SDS011;58753;49.440;11.126;2023-04-25T07:55:14;5.17;;;2.77;;
71095;SDS011;58753;49.440;11.126;2023-04-25T07:57:39;6.15;;;2.88;;
71095;SDS011;58753;49.440;11.126;2023-04-25T08:00:05;5.33;;;2.80;;
71095;SDS011;58753;49.440;11.126;2023-04-25T08:02:34;5.85;;;2.58;;
71095;SDS011;58753;49.440;11.126;2023-04-25T08:05:00;6.30;;;2.97;;
71095;SDS011;58753;49.440;11.126;2023-04-25T08:07:25;5.93;;;2.83;;
71095;SDS011;58753;49.440;11.126;2023-04-25T08:09:50;7.37;;;3.27;;
71095;SDS011;58753;49.440;11.126;2023-04-25T08:12:16;5.67;;;2.67;;
71095;SDS011;58753;49.440;11.126;2023-04-25T08:14:41;8.43;;;2.42;;
71095;SDS011;58753;49.440;11.126;2023-04-25T08:17:06;4.43;;;2.57;;
71095;SDS011;58753;49.440;11.126;2023-04-25T08:19:32;5.50;;;2.87;;
71095;SDS011;58753;49.440;11.126;2023-04-25T08:21:57;5.37;;;2.10;;
71095;SDS011;58753;49.440;11.126;2023-04-25T08:24:23;5.43;;;2.10;;
71095;SDS011;58753;49.440;11.126;2023-04-25T08:26:48;4.93;;;2.10;;
71095;SDS011;58753;49.440;11.126;2023-04-25T08:29:14;6.70;;;3.27;;
71095;SDS011;58753;49.440;11.126;2023-04-25T08:31:40;5.03;;;2.38;;
71095;SDS011;58753;49.440;11.126;2023-04-25T08:34:05;9.52;;;3.00;;
71095;SDS011;58753;49.440;11.126;2023-04-25T08:36:31;9.90;;;3.03;;
71095;SDS011;58753;49.440;11.126;2023-04-25T08:38:57;6.90;;;3.30;;
71095;SDS011;58753;49.440;11.126;2023-04-25T08:41:23;7.20;;;2.83;;
71095;SDS011;58753;49.440;11.126;2023-04-25T08:43:49;8.93;;;3.20;;
71095;SDS011;58753;49.440;11.126;2023-04-25T08:46:17;9.73;;;3.08;;
71095;SDS011;58753;49.440;11.126;2023-04-25T08:48:44;4.97;;;2.30;;
71095;SDS011;58753;49.440;11.126;2023-04-25T08:51:10;6.50;;;2.72;;
71095;SDS011;58753;49.440;11.126;2023-04-25T08:53:46;6.88;;;3.03;;
71095;SDS011;58753;49.440;11.126;2023-04-25T08:56:15;7.88;;;3.60;;
71095;SDS011;58753;49.440;11.126;2023-04-25T08:58:43;8.88;;;3.15;;
71095;SDS011;58753;49.440;11.126;2023-04-25T09:01:09;9.47;;;3.40;;
71095;SDS011;58753;49.440;11.126;2023-04-25T09:03:35;5.97;;;2.10;;
71095;SDS011;58753;49.440;11.126;2023-04-25T09:06:01;6.40;;;3.10;;
71095;SDS011;58753;49.440;11.126;2023-04-25T09:08:27;8.05;;;2.10;;
71095;SDS011;58753;49.440;11.126;2023-04-25T09:10:52;9.27;;;3.70;;
71095;SDS011;58753;49.440;11.126;2023-04-25T09:13:24;5.90;;;2.85;;
71095;SDS011;58753;49.440;11.126;2023-04-25T09:15:52;7.73;;;3.63;;
71095;SDS011;58753;49.440;11.126;2023-04-25T09:20:54;9.15;;;3.50;;
71095;SDS011;58753;49.440;11.126;2023-04-25T09:23:21;6.22;;;3.10;;
71095;SDS011;58753;49.440;11.126;2023-04-25T09:25:49;7.57;;;4.72;;
71095;SDS011;58753;49.440;11.126;2023-04-25T09:28:16;4.40;;;2.43;;
71095;SDS011;58753;49.440;11.126;2023-04-25T09:30:47;8.15;;;4.32;;
71095;SDS011;58753;49.440;11.126;2023-04-25T09:33:12;5.87;;;3.57;;
71095;SDS011;58753;49.440;11.126;2023-04-25T09:35:39;6.45;;;3.60;;
71095;SDS011;58753;49.440;11.126;2023-04-25T09:38:11;8.13;;;4.20;;
71095;SDS011;58753;49.440;11.126;2023-04-25T09:40:41;6.55;;;3.17;;
71095;SDS011;58753;49.440;11.126;2023-04-25T09:43:20;4.93;;;2.95;;
71095;SDS011;58753;49.440;11.126;2023-04-25T09:45:47;6.53;;;2.97;;
71095;SDS011;58753;49.440;11.126;2023-04-25T09:48:17;6.10;;;3.25;;
71095;SDS011;58753;49.440;11.126;2023-04-25T09:50:44;6.80;;;3.80;;
71095;SDS011;58753;49.440;11.126;2023-04-25T09:53:10;6.18;;;2.83;;
71095;SDS011;58753;49.440;11.126;2023-04-25T09:55:35;6.33;;;3.40;;
71095;SDS011;58753;49.440;11.126;2023-04-25T09:58:04;5.28;;;3.10;;
71095;SDS011;58753;49.440;11.126;2023-04-25T10:00:32;7.53;;;2.78;;
71095;SDS011;58753;49.440;11.126;2023-04-25T10:02:59;7.07;;;3.20;;
71095;SDS011;58753;49.440;11.126;2023-04-25T10:05:28;7.22;;;3.83;;
71095;SDS011;58753;49.440;11.126;2023-04-25T10:07:56;4.90;;;2.72;;
71095;SDS011;58753;49.440;11.126;2023-04-25T10:10:23;6.07;;;2.90;;
71095;SDS011;58753;49.440;11.126;2023-04-25T10:12:52;6.10;;;2.55;;
71095;SDS011;58753;49.440;11.126;2023-04-25T10:15:19;5.43;;;2.50;;
71095;SDS011;58753;49.440;11.126;2023-04-25T10:17:44;3.58;;;2.25;;
71095;SDS011;58753;49.440;11.126;2023-04-25T10:20:10;9.33;;;2.83;;
71095;SDS011;58753;49.440;11.126;2023-04-25T10:22:41;4.97;;;2.93;;
71095;SDS011;58753;49.440;11.126;2023-04-25T10:25:09;6.10;;;3.00;;
71095;SDS011;58753;49.440;11.126;2023-04-25T10:27:35;5.78;;;3.53;;
71095;SDS011;58753;49.440;11.126;2023-04-25T10:30:02;5.05;;;2.65;;
71095;SDS011;58753;49.440;11.126;2023-04-25T10:32:41;7.17;;;3.33;;
71095;SDS011;58753;49.440;11.126;2023-04-25T10:35:11;5.30;;;2.22;;
71095;SDS011;58753;49.440;11.126;2023-04-25T10:37:37;7.60;;;2.15;;
71095;SDS011;58753;49.440;11.126;2023-04-25T10:40:08;4.60;;;1.90;;
71095;SDS011;58753;49.440;11.126;2023-04-25T10:42:34;3.83;;;1.85;;
71095;SDS011;58753;49.440;11.126;2023-04-25T10:45:01;2.75;;;1.20;;
71095;SDS011;58753;49.440;11.126;2023-04-25T10:47:35;2.40;;;1.00;;
71095;SDS011;58753;49.440;11.126;2023-04-25T10:50:08;3.92;;;1.60;;
71095;SDS011;58753;49.440;11.126;2023-04-25T10:52:34;3.70;;;1.25;;
71095;SDS011;58753;49.440;11.126;2023-04-25T10:54:59;4.90;;;1.47;;
71095;SDS011;58753;49.440;11.126;2023-04-25T10:57:32;3.53;;;1.88;;
71095;SDS011;58753;49.440;11.126;2023-04-25T11:00:15;3.90;;;1.85;;
71095;SDS011;58753;49.440;11.126;2023-04-25T11:02:43;5.10;;;1.77;;
71095;SDS011;58753;49.440;11.126;2023-04-25T11:05:32;4.05;;;1.77;;
71095;SDS011;58753;49.440;11.126;2023-04-25T11:07:59;3.27;;;1.43;;
71095;SDS011;58753;49.440;11.126;2023-04-25T11:10:28;5.47;;;1.88;;
71095;SDS011;58753;49.440;11.126;2023-04-25T11:12:56;5.78;;;1.50;;
71095;SDS011;58753;49.440;11.126;2023-04-25T11:15:22;2.03;;;1.20;;
71095;SDS011;58753;49.440;11.126;2023-04-25T11:17:50;5.30;;;1.27;;
71095;SDS011;58753;49.440;11.126;2023-04-25T11:20:16;2.78;;;1.23;;
71095;SDS011;58753;49.440;11.126;2023-04-25T11:22:41;3.83;;;1.10;;
71095;SDS011;58753;49.440;11.126;2023-04-25T11:25:10;4.30;;;1.25;;
71095;SDS011;58753;49.440;11.126;2023-04-25T11:27:37;3.25;;;1.10;;
71095;SDS011;58753;49.440;11.126;2023-04-25T11:30:16;2.53;;;1.30;;
71095;SDS011;58753;49.440;11.126;2023-04-25T11:32:42;5.28;;;1.52;;
71095;SDS011;58753;49.440;11.126;2023-04-25T11:35:11;2.37;;;1.10;;
71095;SDS011;58753;49.440;11.126;2023-04-25T11:37:40;1.95;;;0.93;;
71095;SDS011;58753;49.440;11.126;2023-04-25T11:40:07;4.57;;;1.30;;
71095;SDS011;58753;49.440;11.126;2023-04-25T11:42:35;2.53;;;1.13;;
71095;SDS011;58753;49.440;11.126;2023-04-25T11:45:02;2.88;;;1.00;;
71095;SDS011;58753;49.440;11.126;2023-04-25T11:47:31;3.50;;;1.00;;
71095;SDS011;58753;49.440;11.126;2023-04-25T11:49:58;4.00;;;1.20;;
71095;SDS011;58753;49.440;11.126;2023-04-25T11:52:24;2.08;;;0.93;;
71095;SDS011;58753;49.440;11.126;2023-04-25T11:55:00;1.77;;;0.90;;
71095;SDS011;58753;49.440;11.126;2023-04-25T11:57:25;3.80;;;1.17;;
71095;SDS011;58753;49.440;11.126;2023-04-25T11:59:51;4.27;;;1.53;;
71095;SDS011;58753;49.440;11.126;2023-04-25T12:02:25;2.73;;;0.90;;
71095;SDS011;58753;49.440;11.126;2023-04-25T12:04:51;1.40;;;0.50;;
71095;SDS011;58753;49.440;11.126;2023-04-25T12:07:17;1.60;;;0.70;;
71095;SDS011;58753;49.440;11.126;2023-04-25T12:09:50;1.92;;;0.73;;
71095;SDS011;58753;49.440;11.126;2023-04-25T12:12:16;1.93;;;0.50;;
71095;SDS011;58753;49.440;11.126;2023-04-25T12:14:45;1.20;;;0.60;;
71095;SDS011;58753;49.440;11.126;2023-04-25T12:17:13;1.20;;;0.47;;
71095;SDS011;58753;49.440;11.126;2023-04-25T12:19:38;2.10;;;0.68;;
71095;SDS011;58753;49.440;11.126;2023-04-25T12:22:18;1.37;;;0.40;;
71095;SDS011;58753;49.440;11.126;2023-04-25T12:24:46;3.70;;;0.63;;
71095;SDS011;58753;49.440;11.126;2023-04-25T12:27:13;1.30;;;0.57;;
71095;SDS011;58753;49.440;11.126;2023-04-25T12:29:49;2.23;;;0.80;;
71095;SDS011;58753;49.440;11.126;2023-04-25T12:32:16;2.17;;;1.00;;
71095;SDS011;58753;49.440;11.126;2023-04-25T12:34:42;2.28;;;0.52;;
71095;SDS011;58753;49.440;11.126;2023-04-25T12:37:08;4.70;;;1.17;;
71095;SDS011;58753;49.440;11.126;2023-04-25T12:39:34;2.67;;;0.73;;
71095;SDS011;58753;49.440;11.126;2023-04-25T12:41:59;2.77;;;1.03;;
71095;SDS011;58753;49.440;11.126;2023-04-25T12:44:25;2.10;;;0.73;;
71095;SDS011;58753;49.440;11.126;2023-04-25T12:46:50;2.20;;;0.83;;
71095;SDS011;58753;49.440;11.126;2023-04-25T12:49:16;2.38;;;0.90;;
71095;SDS011;58753;49.440;11.126;2023-04-25T12:51:41;3.27;;;0.90;;
71095;SDS011;58753;49.440;11.126;2023-04-25T12:54:06;1.77;;;0.70;;
71095;SDS011;58753;49.440;11.126;2023-04-25T12:56:33;4.90;;;0.85;;
71095;SDS011;58753;49.440;11.126;2023-04-25T12:58:59;3.38;;;0.88;;
71095;SDS011;58753;49.440;11.126;2023-04-25T13:01:25;2.07;;;0.90;;
71095;SDS011;58753;49.440;11.126;2023-04-25T13:03:51;1.88;;;0.70;;
71095;SDS011;58753;49.440;11.126;2023-04-25T13:06:17;1.92;;;1.00;;
71095;SDS011;58753;49.440;11.126;2023-04-25T13:08:44;4.33;;;1.20;;
71095;SDS011;58753;49.440;11.126;2023-04-25T13:11:09;1.42;;;0.60;;
71095;SDS011;58753;49.440;11.126;2023-04-25T13:13:35;3.00;;;0.87;;
71095;SDS011;58753;49.440;11.126;2023-04-25T13:16:01;2.17;;;0.98;;
71095;SDS011;58753;49.440;11.126;2023-04-25T13:18:27;2.17;;;1.00;;
71095;SDS011;58753;49.440;11.126;2023-04-25T13:20:54;4.63;;;1.10;;
71095;SDS011;58753;49.440;11.126;2023-04-25T13:23:19;5.45;;;1.70;;
71095;SDS011;58753;49.440;11.126;2023-04-25T13:25:46;1.80;;;1.03;;
71095;SDS011;58753;49.440;11.126;2023-04-25T13:28:12;3.42;;;1.20;;
71095;SDS011;58753;49.440;11.126;2023-04-25T13:30:37;2.75;;;1.10;;
71095;SDS011;58753;49.440;11.126;2023-04-25T13:33:03;3.03;;;0.93;;
71095;SDS011;58753;49.440;11.126;2023-04-25T13:35:29;2.97;;;1.10;;
71095;SDS011;58753;49.440;11.126;2023-04-25T13:37:55;7.50;;;1.60;;
71095;SDS011;58753;49.440;11.126;2023-04-25T13:40:20;3.15;;;1.52;;
71095;SDS011;58753;49.440;11.126;2023-04-25T13:42:46;1.93;;;0.87;;
71095;SDS011;58753;49.440;11.126;2023-04-25T13:45:11;5.00;;;1.60;;
71095;SDS011;58753;49.440;11.126;2023-04-25T13:47:37;1.43;;;0.80;;
71095;SDS011;58753;49.440;11.126;2023-04-25T13:50:03;2.73;;;1.23;;
71095;SDS011;58753;49.440;11.126;2023-04-25T13:52:30;3.22;;;1.30;;
71095;SDS011;58753;49.440;11.126;2023-04-25T13:54:56;4.07;;;1.33;;
71095;SDS011;58753;49.440;11.126;2023-04-25T13:57:22;3.60;;;1.30;;
71095;SDS011;58753;49.440;11.126;2023-04-25T13:59:47;3.33;;;1.40;;
71095;SDS011;58753;49.440;11.126;2023-04-25T14:02:13;2.20;;;0.75;;
71095;SDS011;58753;49.440;11.126;2023-04-25T14:04:38;3.33;;;1.20;;
71095;SDS011;58753;49.440;11.126;2023-04-25T14:07:04;6.90;;;1.60;;
71095;SDS011;58753;49.440;11.126;2023-04-25T14:09:30;3.28;;;0.90;;
71095;SDS011;58753;49.440;11.126;2023-04-25T14:11:55;2.80;;;1.13;;
71095;SDS011;58753;49.440;11.126;2023-04-25T14:14:21;3.47;;;1.00;;
71095;SDS011;58753;49.440;11.126;2023-04-25T14:16:48;3.33;;;1.35;;
71095;SDS011;58753;49.440;11.126;2023-04-25T14:19:15;5.90;;;1.58;;
71095;SDS011;58753;49.440;11.126;2023-04-25T14:21:43;3.13;;;1.30;;
71095;SDS011;58753;49.440;11.126;2023-04-25T14:24:09;3.20;;;1.17;;
71095;SDS011;58753;49.440;11.126;2023-04-25T14:26:36;4.30;;;1.40;;
71095;SDS011;58753;49.440;11.126;2023-04-25T14:29:02;5.07;;;1.90;;
71095;SDS011;58753;49.440;11.126;2023-04-25T14:31:28;3.38;;;1.65;;